sensor_id;sensor_type;location;lat;lon;timestamp;P1;durP1;ratioP1;P2;durP2;ratioP2
21507;SDS011;10915;54.352;9.074;2023-07-24T00:11:52;11.67;;;5.93;;
21507;SDS011;10915;54.352;9.074;2023-07-24T02:07:36;10.90;;;6.93;;
21507;SDS011;10915;54.352;9.074;2023-07-24T02:58:12;18.57;;;8.97;;
21507;SDS011;10915;54.352;9.074;2023-07-24T03:06:48;12.23;;;6.17;;
21507;SDS011;10915;54.352;9.074;2023-07-24T03:09:13;14.20;;;5.70;;
21507;SDS011;10915;54.352;9.074;2023-07-24T03:11:39;15.23;;;5.70;;
21507;SDS011;10915;54.352;9.074;2023-07-24T03:14:04;16.80;;;5.17;;
21507;SDS011;10915;54.352;9.074;2023-07-24T03:16:30;13.07;;;4.90;;
21507;SDS011;10915;54.352;9.074;2023-07-24T03:18:56;15.87;;;4.40;;
21507;SDS011;10915;54.352;9.074;2023-07-24T03:21:21;17.40;;;5.87;;
21507;SDS011;10915;54.352;9.074;2023-07-24T03:23:47;14.87;;;4.73;;
21507;SDS011;10915;54.352;9.074;2023-07-24T03:26:13;11.53;;;4.73;;
21507;SDS011;10915;54.352;9.074;2023-07-24T03:28:38;12.23;;;5.23;;
21507;SDS011;10915;54.352;9.074;2023-07-24T03:31:04;12.23;;;4.07;;
21507;SDS011;10915;54.352;9.074;2023-07-24T03:33:29;13.83;;;4.63;;
21507;SDS011;10915;54.352;9.074;2023-07-24T03:35:55;12.87;;;3.80;;
21507;SDS011;10915;54.352;9.074;2023-07-24T03:38:21;13.30;;;4.63;;
21507;SDS011;10915;54.352;9.074;2023-07-24T03:40:46;15.20;;;5.17;;
21507;SDS011;10915;54.352;9.074;2023-07-24T03:43:13;11.40;;;4.70;;
21507;SDS011;10915;54.352;9.074;2023-07-24T03:45:39;12.67;;;4.67;;
21507;SDS011;10915;54.352;9.074;2023-07-24T03:48:04;14.90;;;4.43;;
21507;SDS011;10915;54.352;9.074;2023-07-24T03:50:30;14.27;;;4.40;;
21507;SDS011;10915;54.352;9.074;2023-07-24T03:52:55;13.17;;;4.30;;
21507;SDS011;10915;54.352;9.074;2023-07-24T03:55:21;10.93;;;3.87;;
21507;SDS011;10915;54.352;9.074;2023-07-24T03:57:46;10.30;;;3.90;;
21507;SDS011;10915;54.352;9.074;2023-07-24T04:00:12;12.20;;;4.43;;
21507;SDS011;10915;54.352;9.074;2023-07-24T04:02:38;9.67;;;3.83;;
21507;SDS011;10915;54.352;9.074;2023-07-24T04:05:04;7.03;;;3.00;;
21507;SDS011;10915;54.352;9.074;2023-07-24T04:07:30;7.20;;;3.60;;
21507;SDS011;10915;54.352;9.074;2023-07-24T04:09:56;8.30;;;3.47;;
21507;SDS011;10915;54.352;9.074;2023-07-24T04:12:21;9.53;;;3.53;;
21507;SDS011;10915;54.352;9.074;2023-07-24T04:14:47;11.00;;;4.00;;
21507;SDS011;10915;54.352;9.074;2023-07-24T04:17:14;8.57;;;3.27;;
21507;SDS011;10915;54.352;9.074;2023-07-24T04:19:40;5.57;;;2.90;;
21507;SDS011;10915;54.352;9.074;2023-07-24T04:22:05;7.60;;;2.90;;
21507;SDS011;10915;54.352;9.074;2023-07-24T04:24:31;7.73;;;3.00;;
21507;SDS011;10915;54.352;9.074;2023-07-24T04:26:56;8.20;;;3.27;;
21507;SDS011;10915;54.352;9.074;2023-07-24T04:29:22;8.17;;;2.70;;
21507;SDS011;10915;54.352;9.074;2023-07-24T04:31:50;11.00;;;3.40;;
21507;SDS011;10915;54.352;9.074;2023-07-24T04:34:16;12.67;;;3.33;;
21507;SDS011;10915;54.352;9.074;2023-07-24T04:36:42;7.07;;;2.63;;
21507;SDS011;10915;54.352;9.074;2023-07-24T04:39:07;6.00;;;2.40;;
21507;SDS011;10915;54.352;9.074;2023-07-24T04:41:33;8.00;;;2.43;;
21507;SDS011;10915;54.352;9.074;2023-07-24T04:43:58;5.77;;;2.13;;
21507;SDS011;10915;54.352;9.074;2023-07-24T04:46:24;6.13;;;2.50;;
21507;SDS011;10915;54.352;9.074;2023-07-24T04:48:49;4.73;;;2.20;;
21507;SDS011;10915;54.352;9.074;2023-07-24T04:51:15;7.87;;;2.13;;
21507;SDS011;10915;54.352;9.074;2023-07-24T04:53:41;4.03;;;2.10;;
21507;SDS011;10915;54.352;9.074;2023-07-24T04:56:06;9.30;;;2.57;;
21507;SDS011;10915;54.352;9.074;2023-07-24T04:58:32;6.37;;;2.37;;
21507;SDS011;10915;54.352;9.074;2023-07-24T05:01:01;5.57;;;2.03;;
21507;SDS011;10915;54.352;9.074;2023-07-24T05:03:27;4.67;;;1.87;;
21507;SDS011;10915;54.352;9.074;2023-07-24T05:05:53;7.30;;;2.43;;
21507;SDS011;10915;54.352;9.074;2023-07-24T05:08:20;5.90;;;1.80;;
21507;SDS011;10915;54.352;9.074;2023-07-24T05:10:45;5.60;;;2.80;;
21507;SDS011;10915;54.352;9.074;2023-07-24T05:13:11;7.00;;;1.60;;
21507;SDS011;10915;54.352;9.074;2023-07-24T05:15:36;3.90;;;1.60;;
21507;SDS011;10915;54.352;9.074;2023-07-24T05:18:02;6.13;;;2.20;;
21507;SDS011;10915;54.352;9.074;2023-07-24T05:20:28;10.47;;;2.20;;
21507;SDS011;10915;54.352;9.074;2023-07-24T05:22:53;7.87;;;1.90;;
21507;SDS011;10915;54.352;9.074;2023-07-24T05:25:19;5.57;;;2.13;;
21507;SDS011;10915;54.352;9.074;2023-07-24T05:27:44;6.20;;;1.83;;
21507;SDS011;10915;54.352;9.074;2023-07-24T05:30:10;5.27;;;1.70;;
21507;SDS011;10915;54.352;9.074;2023-07-24T05:32:36;3.87;;;1.57;;
21507;SDS011;10915;54.352;9.074;2023-07-24T05:35:01;3.73;;;1.63;;
21507;SDS011;10915;54.352;9.074;2023-07-24T05:37:27;5.27;;;1.50;;
21507;SDS011;10915;54.352;9.074;2023-07-24T05:39:52;3.77;;;1.50;;
21507;SDS011;10915;54.352;9.074;2023-07-24T05:42:18;9.80;;;2.20;;
21507;SDS011;10915;54.352;9.074;2023-07-24T05:44:44;6.53;;;1.90;;
21507;SDS011;10915;54.352;9.074;2023-07-24T05:47:09;7.80;;;2.37;;
21507;SDS011;10915;54.352;9.074;2023-07-24T05:49:35;4.53;;;1.50;;
21507;SDS011;10915;54.352;9.074;2023-07-24T05:52:00;5.40;;;1.80;;
21507;SDS011;10915;54.352;9.074;2023-07-24T05:54:26;4.33;;;1.50;;
21507;SDS011;10915;54.352;9.074;2023-07-24T05:56:52;5.30;;;2.00;;
21507;SDS011;10915;54.352;9.074;2023-07-24T05:59:17;6.50;;;2.23;;
21507;SDS011;10915;54.352;9.074;2023-07-24T06:01:43;6.90;;;1.80;;
21507;SDS011;10915;54.352;9.074;2023-07-24T06:04:08;3.87;;;1.80;;
21507;SDS011;10915;54.352;9.074;2023-07-24T06:06:34;7.13;;;1.77;;
21507;SDS011;10915;54.352;9.074;2023-07-24T06:09:01;9.13;;;2.30;;
21507;SDS011;10915;54.352;9.074;2023-07-24T06:11:28;7.90;;;2.17;;
21507;SDS011;10915;54.352;9.074;2023-07-24T06:13:53;5.27;;;2.50;;
21507;SDS011;10915;54.352;9.074;2023-07-24T06:16:19;6.30;;;2.50;;
21507;SDS011;10915;54.352;9.074;2023-07-24T06:18:44;4.07;;;1.70;;
21507;SDS011;10915;54.352;9.074;2023-07-24T06:21:10;4.80;;;1.77;;
21507;SDS011;10915;54.352;9.074;2023-07-24T06:23:36;5.87;;;2.13;;
21507;SDS011;10915;54.352;9.074;2023-07-24T06:26:01;7.63;;;1.93;;
21507;SDS011;10915;54.352;9.074;2023-07-24T06:28:27;4.80;;;2.10;;
21507;SDS011;10915;54.352;9.074;2023-07-24T06:30:53;5.40;;;2.43;;
21507;SDS011;10915;54.352;9.074;2023-07-24T06:33:19;7.13;;;2.30;;
21507;SDS011;10915;54.352;9.074;2023-07-24T06:35:46;5.77;;;1.83;;
21507;SDS011;10915;54.352;9.074;2023-07-24T06:44:59;4.17;;;2.10;;
21507;SDS011;10915;54.352;9.074;2023-07-24T06:47:25;4.67;;;1.90;;
21507;SDS011;10915;54.352;9.074;2023-07-24T06:49:50;5.77;;;2.23;;
21507;SDS011;10915;54.352;9.074;2023-07-24T06:52:16;7.33;;;1.97;;
21507;SDS011;10915;54.352;9.074;2023-07-24T06:54:42;4.73;;;1.70;;
21507;SDS011;10915;54.352;9.074;2023-07-24T06:57:08;5.27;;;2.00;;
21507;SDS011;10915;54.352;9.074;2023-07-24T06:59:33;9.40;;;2.73;;
21507;SDS011;10915;54.352;9.074;2023-07-24T07:01:59;5.90;;;2.60;;
21507;SDS011;10915;54.352;9.074;2023-07-24T07:04:25;6.53;;;2.00;;
21507;SDS011;10915;54.352;9.074;2023-07-24T07:06:50;4.97;;;1.93;;
21507;SDS011;10915;54.352;9.074;2023-07-24T07:09:16;3.83;;;1.90;;
21507;SDS011;10915;54.352;9.074;2023-07-24T07:11:41;5.50;;;2.13;;
21507;SDS011;10915;54.352;9.074;2023-07-24T07:14:08;3.73;;;1.87;;
21507;SDS011;10915;54.352;9.074;2023-07-24T07:16:34;4.37;;;1.60;;
21507;SDS011;10915;54.352;9.074;2023-07-24T07:19:00;3.70;;;1.90;;
21507;SDS011;10915;54.352;9.074;2023-07-24T07:21:26;5.93;;;2.13;;
21507;SDS011;10915;54.352;9.074;2023-07-24T07:30:43;6.73;;;1.83;;
21507;SDS011;10915;54.352;9.074;2023-07-24T07:33:08;5.37;;;1.90;;
21507;SDS011;10915;54.352;9.074;2023-07-24T07:35:34;8.13;;;1.90;;
21507;SDS011;10915;54.352;9.074;2023-07-24T07:38:01;6.03;;;1.90;;
21507;SDS011;10915;54.352;9.074;2023-07-24T07:40:27;4.70;;;1.90;;
21507;SDS011;10915;54.352;9.074;2023-07-24T07:42:53;1.97;;;1.20;;
21507;SDS011;10915;54.352;9.074;2023-07-24T07:45:19;6.10;;;1.87;;
21507;SDS011;10915;54.352;9.074;2023-07-24T07:47:45;7.53;;;2.30;;
21507;SDS011;10915;54.352;9.074;2023-07-24T07:50:11;4.43;;;1.83;;
21507;SDS011;10915;54.352;9.074;2023-07-24T07:52:37;3.50;;;1.37;;
21507;SDS011;10915;54.352;9.074;2023-07-24T07:55:02;5.90;;;2.00;;
21507;SDS011;10915;54.352;9.074;2023-07-24T07:57:28;46.70;;;41.50;;
21507;SDS011;10915;54.352;9.074;2023-07-24T07:59:54;24.03;;;21.50;;
21507;SDS011;10915;54.352;9.074;2023-07-24T08:02:19;8.80;;;5.10;;
21507;SDS011;10915;54.352;9.074;2023-07-24T08:04:45;9.03;;;3.67;;
21507;SDS011;10915;54.352;9.074;2023-07-24T08:07:10;5.93;;;3.20;;
21507;SDS011;10915;54.352;9.074;2023-07-24T08:09:36;5.73;;;2.80;;
21507;SDS011;10915;54.352;9.074;2023-07-24T08:12:03;7.50;;;3.23;;
21507;SDS011;10915;54.352;9.074;2023-07-24T08:14:29;8.57;;;4.23;;
21507;SDS011;10915;54.352;9.074;2023-07-24T08:16:55;7.23;;;3.27;;
21507;SDS011;10915;54.352;9.074;2023-07-24T08:19:21;4.13;;;2.60;;
21507;SDS011;10915;54.352;9.074;2023-07-24T08:21:46;4.23;;;1.90;;
21507;SDS011;10915;54.352;9.074;2023-07-24T08:24:12;3.97;;;1.67;;
21507;SDS011;10915;54.352;9.074;2023-07-24T08:26:38;11.57;;;7.87;;
21507;SDS011;10915;54.352;9.074;2023-07-24T08:29:04;22.00;;;18.70;;
21507;SDS011;10915;54.352;9.074;2023-07-24T08:31:30;58.63;;;52.53;;
21507;SDS011;10915;54.352;9.074;2023-07-24T08:33:55;35.70;;;32.40;;
21507;SDS011;10915;54.352;9.074;2023-07-24T08:36:21;14.27;;;12.77;;
21507;SDS011;10915;54.352;9.074;2023-07-24T08:38:47;6.50;;;4.07;;
21507;SDS011;10915;54.352;9.074;2023-07-24T08:41:13;4.17;;;2.47;;
21507;SDS011;10915;54.352;9.074;2023-07-24T08:43:40;3.80;;;2.07;;
21507;SDS011;10915;54.352;9.074;2023-07-24T08:46:07;2.43;;;1.70;;
21507;SDS011;10915;54.352;9.074;2023-07-24T08:48:37;9.00;;;2.70;;
21507;SDS011;10915;54.352;9.074;2023-07-24T08:51:12;4.90;;;2.67;;
21507;SDS011;10915;54.352;9.074;2023-07-24T08:53:41;3.37;;;2.33;;
21507;SDS011;10915;54.352;9.074;2023-07-24T08:56:12;4.07;;;1.80;;
21507;SDS011;10915;54.352;9.074;2023-07-24T08:58:38;4.87;;;3.03;;
21507;SDS011;10915;54.352;9.074;2023-07-24T09:01:07;6.87;;;3.47;;
21507;SDS011;10915;54.352;9.074;2023-07-24T09:03:33;4.07;;;2.40;;
21507;SDS011;10915;54.352;9.074;2023-07-24T09:22:58;4.20;;;1.57;;
21507;SDS011;10915;54.352;9.074;2023-07-24T09:28:26;3.60;;;1.73;;
21507;SDS011;10915;54.352;9.074;2023-07-24T09:30:58;5.63;;;1.63;;
21507;SDS011;10915;54.352;9.074;2023-07-24T09:33:56;2.80;;;1.30;;
21507;SDS011;10915;54.352;9.074;2023-07-24T09:36:36;3.57;;;1.20;;
21507;SDS011;10915;54.352;9.074;2023-07-24T09:39:24;3.67;;;1.40;;
21507;SDS011;10915;54.352;9.074;2023-07-24T09:42:05;3.37;;;1.40;;
21507;SDS011;10915;54.352;9.074;2023-07-24T09:44:56;3.23;;;1.70;;
21507;SDS011;10915;54.352;9.074;2023-07-24T09:47:22;4.83;;;1.50;;
21507;SDS011;10915;54.352;9.074;2023-07-24T09:50:07;4.13;;;1.60;;
21507;SDS011;10915;54.352;9.074;2023-07-24T09:56:51;6.17;;;1.80;;
21507;SDS011;10915;54.352;9.074;2023-07-24T09:59:26;4.93;;;1.60;;
21507;SDS011;10915;54.352;9.074;2023-07-24T10:01:59;3.63;;;1.60;;
21507;SDS011;10915;54.352;9.074;2023-07-24T10:04:25;4.37;;;2.00;;
21507;SDS011;10915;54.352;9.074;2023-07-24T10:06:51;6.77;;;1.87;;
21507;SDS011;10915;54.352;9.074;2023-07-24T10:09:17;5.17;;;1.97;;
21507;SDS011;10915;54.352;9.074;2023-07-24T10:11:49;6.97;;;3.37;;
21507;SDS011;10915;54.352;9.074;2023-07-24T10:14:15;5.77;;;2.47;;
21507;SDS011;10915;54.352;9.074;2023-07-24T10:16:57;5.83;;;2.70;;
21507;SDS011;10915;54.352;9.074;2023-07-24T10:19:41;4.30;;;2.57;;
21507;SDS011;10915;54.352;9.074;2023-07-24T10:22:22;4.77;;;2.70;;
21507;SDS011;10915;54.352;9.074;2023-07-24T10:28:09;4.33;;;1.93;;
21507;SDS011;10915;54.352;9.074;2023-07-24T10:31:00;3.63;;;1.70;;
21507;SDS011;10915;54.352;9.074;2023-07-24T10:33:44;3.47;;;1.30;;
21507;SDS011;10915;54.352;9.074;2023-07-24T10:36:26;8.03;;;2.10;;
21507;SDS011;10915;54.352;9.074;2023-07-24T10:39:17;3.37;;;1.80;;
21507;SDS011;10915;54.352;9.074;2023-07-24T10:42:06;3.90;;;1.87;;
21507;SDS011;10915;54.352;9.074;2023-07-24T10:45:01;5.80;;;2.77;;
21507;SDS011;10915;54.352;9.074;2023-07-24T10:48:02;4.90;;;2.60;;
21507;SDS011;10915;54.352;9.074;2023-07-24T10:54:10;5.30;;;2.73;;
21507;SDS011;10915;54.352;9.074;2023-07-24T11:00:11;7.07;;;1.93;;
21507;SDS011;10915;54.352;9.074;2023-07-24T11:02:52;5.40;;;2.33;;
21507;SDS011;10915;54.352;9.074;2023-07-24T11:05:39;3.93;;;2.23;;
21507;SDS011;10915;54.352;9.074;2023-07-24T11:11:38;4.60;;;2.00;;
21507;SDS011;10915;54.352;9.074;2023-07-24T11:14:03;4.47;;;2.10;;
21507;SDS011;10915;54.352;9.074;2023-07-24T11:16:29;4.83;;;2.07;;
21507;SDS011;10915;54.352;9.074;2023-07-24T11:19:07;4.67;;;2.40;;
21507;SDS011;10915;54.352;9.074;2023-07-24T11:21:55;5.07;;;2.57;;
21507;SDS011;10915;54.352;9.074;2023-07-24T11:25:24;6.20;;;2.60;;
21507;SDS011;10915;54.352;9.074;2023-07-24T11:27:32;4.53;;;2.53;;
21507;SDS011;10915;54.352;9.074;2023-07-24T11:30:05;6.53;;;2.60;;
21507;SDS011;10915;54.352;9.074;2023-07-24T11:32:43;5.03;;;2.77;;
21507;SDS011;10915;54.352;9.074;2023-07-24T11:39:22;4.90;;;2.63;;
21507;SDS011;10915;54.352;9.074;2023-07-24T11:41:50;5.00;;;2.63;;
21507;SDS011;10915;54.352;9.074;2023-07-24T11:44:27;6.57;;;2.90;;
21507;SDS011;10915;54.352;9.074;2023-07-24T11:47:03;5.83;;;3.00;;
21507;SDS011;10915;54.352;9.074;2023-07-24T11:59:18;4.07;;;2.93;;
21507;SDS011;10915;54.352;9.074;2023-07-24T12:01:55;4.60;;;2.90;;
21507;SDS011;10915;54.352;9.074;2023-07-24T12:04:36;3.80;;;2.40;;
21507;SDS011;10915;54.352;9.074;2023-07-24T12:07:11;4.37;;;2.70;;
21507;SDS011;10915;54.352;9.074;2023-07-24T12:09:49;4.90;;;2.57;;
21507;SDS011;10915;54.352;9.074;2023-07-24T12:12:35;4.73;;;2.47;;
21507;SDS011;10915;54.352;9.074;2023-07-24T12:15:11;6.03;;;2.60;;
21507;SDS011;10915;54.352;9.074;2023-07-24T12:18:31;3.13;;;2.33;;
21507;SDS011;10915;54.352;9.074;2023-07-24T12:21:33;4.63;;;2.43;;
21507;SDS011;10915;54.352;9.074;2023-07-24T12:24:19;3.47;;;2.30;;
21507;SDS011;10915;54.352;9.074;2023-07-24T12:26:50;5.40;;;2.50;;
21507;SDS011;10915;54.352;9.074;2023-07-24T12:29:21;5.07;;;2.40;;
21507;SDS011;10915;54.352;9.074;2023-07-24T12:31:47;3.93;;;2.10;;
21507;SDS011;10915;54.352;9.074;2023-07-24T12:34:23;7.30;;;2.50;;
21507;SDS011;10915;54.352;9.074;2023-07-24T12:36:59;7.47;;;3.17;;
21507;SDS011;10915;54.352;9.074;2023-07-24T12:39:24;3.53;;;2.50;;
21507;SDS011;10915;54.352;9.074;2023-07-24T12:41:50;4.27;;;2.50;;
21507;SDS011;10915;54.352;9.074;2023-07-24T12:44:16;3.63;;;2.30;;
21507;SDS011;10915;54.352;9.074;2023-07-24T12:46:44;5.73;;;2.50;;
21507;SDS011;10915;54.352;9.074;2023-07-24T12:49:28;5.03;;;2.73;;
21507;SDS011;10915;54.352;9.074;2023-07-24T12:52:41;5.47;;;2.60;;
21507;SDS011;10915;54.352;9.074;2023-07-24T12:55:50;6.03;;;2.30;;
21507;SDS011;10915;54.352;9.074;2023-07-24T12:58:19;4.70;;;2.67;;
21507;SDS011;10915;54.352;9.074;2023-07-24T13:00:50;3.50;;;2.43;;
21507;SDS011;10915;54.352;9.074;2023-07-24T13:03:21;4.37;;;2.40;;
21507;SDS011;10915;54.352;9.074;2023-07-24T13:05:47;4.77;;;2.60;;
21507;SDS011;10915;54.352;9.074;2023-07-24T13:08:13;6.10;;;2.30;;
21507;SDS011;10915;54.352;9.074;2023-07-24T13:10:38;6.33;;;2.50;;
21507;SDS011;10915;54.352;9.074;2023-07-24T13:13:04;5.37;;;2.37;;
21507;SDS011;10915;54.352;9.074;2023-07-24T13:15:29;5.43;;;2.43;;
21507;SDS011;10915;54.352;9.074;2023-07-24T13:17:56;6.13;;;2.73;;
21507;SDS011;10915;54.352;9.074;2023-07-24T13:20:22;3.60;;;2.10;;
21507;SDS011;10915;54.352;9.074;2023-07-24T13:22:49;7.27;;;2.20;;
21507;SDS011;10915;54.352;9.074;2023-07-24T13:25:15;4.47;;;2.40;;
21507;SDS011;10915;54.352;9.074;2023-07-24T13:27:40;5.07;;;2.50;;
21507;SDS011;10915;54.352;9.074;2023-07-24T13:30:06;6.60;;;2.07;;
21507;SDS011;10915;54.352;9.074;2023-07-24T13:32:32;4.50;;;2.17;;
21507;SDS011;10915;54.352;9.074;2023-07-24T13:34:57;5.07;;;2.47;;
21507;SDS011;10915;54.352;9.074;2023-07-24T13:37:24;4.13;;;2.60;;
21507;SDS011;10915;54.352;9.074;2023-07-24T13:39:50;7.00;;;2.33;;
21507;SDS011;10915;54.352;9.074;2023-07-24T13:42:16;5.53;;;2.20;;
21507;SDS011;10915;54.352;9.074;2023-07-24T13:44:42;7.37;;;2.33;;
21507;SDS011;10915;54.352;9.074;2023-07-24T13:47:07;6.90;;;2.63;;
21507;SDS011;10915;54.352;9.074;2023-07-24T13:49:33;5.43;;;2.30;;
21507;SDS011;10915;54.352;9.074;2023-07-24T13:51:58;4.73;;;2.40;;
21507;SDS011;10915;54.352;9.074;2023-07-24T13:54:24;7.43;;;2.30;;
21507;SDS011;10915;54.352;9.074;2023-07-24T13:56:50;5.07;;;2.30;;
21507;SDS011;10915;54.352;9.074;2023-07-24T13:59:15;3.50;;;1.93;;
21507;SDS011;10915;54.352;9.074;2023-07-24T14:01:41;6.40;;;2.27;;
21507;SDS011;10915;54.352;9.074;2023-07-24T14:04:06;7.00;;;2.20;;
21507;SDS011;10915;54.352;9.074;2023-07-24T14:06:32;7.50;;;2.73;;
21507;SDS011;10915;54.352;9.074;2023-07-24T14:08:58;5.17;;;2.27;;
21507;SDS011;10915;54.352;9.074;2023-07-24T14:11:23;6.13;;;2.33;;
21507;SDS011;10915;54.352;9.074;2023-07-24T14:13:49;5.37;;;2.50;;
21507;SDS011;10915;54.352;9.074;2023-07-24T14:16:15;4.17;;;2.17;;
21507;SDS011;10915;54.352;9.074;2023-07-24T14:18:41;4.63;;;2.37;;
21507;SDS011;10915;54.352;9.074;2023-07-24T14:21:06;3.67;;;2.20;;
21507;SDS011;10915;54.352;9.074;2023-07-24T14:23:32;9.70;;;3.30;;
21507;SDS011;10915;54.352;9.074;2023-07-24T14:25:57;5.97;;;3.30;;
21507;SDS011;10915;54.352;9.074;2023-07-24T14:28:23;4.40;;;2.80;;
21507;SDS011;10915;54.352;9.074;2023-07-24T14:30:49;6.60;;;2.67;;
21507;SDS011;10915;54.352;9.074;2023-07-24T14:33:14;4.60;;;2.60;;
21507;SDS011;10915;54.352;9.074;2023-07-24T14:35:40;5.63;;;2.60;;
21507;SDS011;10915;54.352;9.074;2023-07-24T14:38:05;5.67;;;2.13;;
21507;SDS011;10915;54.352;9.074;2023-07-24T14:40:31;5.40;;;2.17;;
21507;SDS011;10915;54.352;9.074;2023-07-24T14:42:57;7.63;;;2.20;;
21507;SDS011;10915;54.352;9.074;2023-07-24T14:45:22;8.47;;;3.03;;
21507;SDS011;10915;54.352;9.074;2023-07-24T14:47:48;9.77;;;2.80;;
21507;SDS011;10915;54.352;9.074;2023-07-24T14:50:14;3.83;;;1.97;;
21507;SDS011;10915;54.352;9.074;2023-07-24T14:52:39;5.57;;;2.20;;
21507;SDS011;10915;54.352;9.074;2023-07-24T14:55:05;5.77;;;2.60;;
21507;SDS011;10915;54.352;9.074;2023-07-24T14:57:31;9.87;;;2.37;;
21507;SDS011;10915;54.352;9.074;2023-07-24T14:59:57;8.67;;;2.37;;
21507;SDS011;10915;54.352;9.074;2023-07-24T15:02:23;5.17;;;2.37;;
21507;SDS011;10915;54.352;9.074;2023-07-24T15:04:48;6.93;;;2.77;;
21507;SDS011;10915;54.352;9.074;2023-07-24T15:07:14;4.43;;;2.37;;
21507;SDS011;10915;54.352;9.074;2023-07-24T15:09:40;4.97;;;2.47;;
21507;SDS011;10915;54.352;9.074;2023-07-24T15:12:07;8.03;;;2.67;;
21507;SDS011;10915;54.352;9.074;2023-07-24T15:14:32;6.77;;;2.27;;
21507;SDS011;10915;54.352;9.074;2023-07-24T15:16:58;5.23;;;2.47;;
21507;SDS011;10915;54.352;9.074;2023-07-24T15:19:24;5.30;;;2.23;;
21507;SDS011;10915;54.352;9.074;2023-07-24T15:21:49;9.87;;;2.60;;
21507;SDS011;10915;54.352;9.074;2023-07-24T15:24:15;4.57;;;2.10;;
21507;SDS011;10915;54.352;9.074;2023-07-24T15:26:42;5.23;;;2.13;;
21507;SDS011;10915;54.352;9.074;2023-07-24T15:29:09;2.53;;;1.83;;
21507;SDS011;10915;54.352;9.074;2023-07-24T15:31:35;6.43;;;2.60;;
21507;SDS011;10915;54.352;9.074;2023-07-24T15:34:02;5.23;;;2.30;;
21507;SDS011;10915;54.352;9.074;2023-07-24T15:36:28;7.13;;;2.10;;
21507;SDS011;10915;54.352;9.074;2023-07-24T15:38:54;5.17;;;2.23;;
21507;SDS011;10915;54.352;9.074;2023-07-24T15:41:20;6.67;;;2.50;;
21507;SDS011;10915;54.352;9.074;2023-07-24T15:43:45;4.60;;;2.10;;
21507;SDS011;10915;54.352;9.074;2023-07-24T15:46:14;7.63;;;2.77;;
21507;SDS011;10915;54.352;9.074;2023-07-24T15:48:39;5.47;;;2.17;;
21507;SDS011;10915;54.352;9.074;2023-07-24T15:51:05;7.40;;;2.13;;
21507;SDS011;10915;54.352;9.074;2023-07-24T15:53:31;5.43;;;1.97;;
21507;SDS011;10915;54.352;9.074;2023-07-24T15:55:56;7.60;;;4.23;;
21507;SDS011;10915;54.352;9.074;2023-07-24T15:58:22;6.13;;;2.77;;
21507;SDS011;10915;54.352;9.074;2023-07-24T16:00:47;6.97;;;2.73;;
21507;SDS011;10915;54.352;9.074;2023-07-24T16:03:13;7.57;;;2.60;;
21507;SDS011;10915;54.352;9.074;2023-07-24T16:05:39;5.37;;;2.00;;
21507;SDS011;10915;54.352;9.074;2023-07-24T16:08:04;4.53;;;2.00;;
21507;SDS011;10915;54.352;9.074;2023-07-24T16:10:31;6.07;;;2.07;;
21507;SDS011;10915;54.352;9.074;2023-07-24T16:12:57;6.47;;;1.90;;
21507;SDS011;10915;54.352;9.074;2023-07-24T16:15:23;7.50;;;2.13;;
21507;SDS011;10915;54.352;9.074;2023-07-24T16:17:48;5.87;;;2.20;;
21507;SDS011;10915;54.352;9.074;2023-07-24T16:20:14;7.53;;;1.80;;
21507;SDS011;10915;54.352;9.074;2023-07-24T16:22:40;3.53;;;1.83;;
21507;SDS011;10915;54.352;9.074;2023-07-24T16:25:06;5.60;;;2.17;;
21507;SDS011;10915;54.352;9.074;2023-07-24T16:27:31;5.00;;;1.93;;
21507;SDS011;10915;54.352;9.074;2023-07-24T16:29:57;6.43;;;1.87;;
21507;SDS011;10915;54.352;9.074;2023-07-24T16:32:23;5.60;;;2.27;;
21507;SDS011;10915;54.352;9.074;2023-07-24T16:34:49;7.73;;;2.10;;
21507;SDS011;10915;54.352;9.074;2023-07-24T16:37:15;8.17;;;2.27;;
21507;SDS011;10915;54.352;9.074;2023-07-24T16:39:41;7.33;;;2.37;;
21507;SDS011;10915;54.352;9.074;2023-07-24T16:42:07;5.53;;;2.27;;
21507;SDS011;10915;54.352;9.074;2023-07-24T16:44:33;7.13;;;2.17;;
21507;SDS011;10915;54.352;9.074;2023-07-24T16:46:59;4.87;;;2.23;;
21507;SDS011;10915;54.352;9.074;2023-07-24T16:49:24;3.33;;;1.67;;
21507;SDS011;10915;54.352;9.074;2023-07-24T16:51:50;4.77;;;1.93;;
21507;SDS011;10915;54.352;9.074;2023-07-24T16:54:16;6.90;;;2.00;;
21507;SDS011;10915;54.352;9.074;2023-07-24T16:56:41;5.50;;;1.80;;
21507;SDS011;10915;54.352;9.074;2023-07-24T16:59:07;8.20;;;2.13;;
21507;SDS011;10915;54.352;9.074;2023-07-24T17:01:33;5.67;;;1.87;;
21507;SDS011;10915;54.352;9.074;2023-07-24T17:03:59;5.30;;;1.97;;
21507;SDS011;10915;54.352;9.074;2023-07-24T17:06:24;5.00;;;1.77;;
21507;SDS011;10915;54.352;9.074;2023-07-24T17:08:50;5.23;;;2.17;;
21507;SDS011;10915;54.352;9.074;2023-07-24T17:11:15;5.07;;;2.00;;
21507;SDS011;10915;54.352;9.074;2023-07-24T17:13:41;5.90;;;1.83;;
21507;SDS011;10915;54.352;9.074;2023-07-24T17:16:07;8.47;;;2.30;;
21507;SDS011;10915;54.352;9.074;2023-07-24T17:18:34;6.43;;;2.30;;
21507;SDS011;10915;54.352;9.074;2023-07-24T17:20:59;6.83;;;2.40;;
21507;SDS011;10915;54.352;9.074;2023-07-24T17:23:25;6.93;;;2.33;;
21507;SDS011;10915;54.352;9.074;2023-07-24T17:25:51;6.23;;;2.17;;
21507;SDS011;10915;54.352;9.074;2023-07-24T17:28:16;6.57;;;2.23;;
21507;SDS011;10915;54.352;9.074;2023-07-24T17:30:42;4.20;;;1.63;;
21507;SDS011;10915;54.352;9.074;2023-07-24T17:33:07;5.40;;;2.37;;
21507;SDS011;10915;54.352;9.074;2023-07-24T17:35:33;6.70;;;2.33;;
21507;SDS011;10915;54.352;9.074;2023-07-24T17:37:59;5.03;;;1.77;;
21507;SDS011;10915;54.352;9.074;2023-07-24T17:40:24;5.63;;;2.00;;
21507;SDS011;10915;54.352;9.074;2023-07-24T17:42:51;6.13;;;2.07;;
21507;SDS011;10915;54.352;9.074;2023-07-24T17:45:17;3.77;;;1.33;;
21507;SDS011;10915;54.352;9.074;2023-07-24T17:47:43;6.10;;;1.90;;
21507;SDS011;10915;54.352;9.074;2023-07-24T17:50:09;5.77;;;2.00;;
21507;SDS011;10915;54.352;9.074;2023-07-24T17:52:35;6.07;;;2.43;;
21507;SDS011;10915;54.352;9.074;2023-07-24T17:55:02;5.00;;;2.07;;
21507;SDS011;10915;54.352;9.074;2023-07-24T17:57:28;6.27;;;2.00;;
21507;SDS011;10915;54.352;9.074;2023-07-24T17:59:54;5.57;;;2.00;;
21507;SDS011;10915;54.352;9.074;2023-07-24T18:02:20;8.20;;;2.27;;
21507;SDS011;10915;54.352;9.074;2023-07-24T18:04:45;9.63;;;2.47;;
21507;SDS011;10915;54.352;9.074;2023-07-24T18:07:11;5.90;;;2.40;;
21507;SDS011;10915;54.352;9.074;2023-07-24T18:09:36;5.60;;;2.07;;
21507;SDS011;10915;54.352;9.074;2023-07-24T18:12:02;5.47;;;1.87;;
21507;SDS011;10915;54.352;9.074;2023-07-24T18:14:28;3.90;;;1.67;;
21507;SDS011;10915;54.352;9.074;2023-07-24T18:16:53;6.33;;;2.00;;
21507;SDS011;10915;54.352;9.074;2023-07-24T18:19:19;6.13;;;1.90;;
21507;SDS011;10915;54.352;9.074;2023-07-24T18:21:44;3.43;;;1.43;;
21507;SDS011;10915;54.352;9.074;2023-07-24T18:24:10;4.03;;;1.40;;
21507;SDS011;10915;54.352;9.074;2023-07-24T18:26:37;2.43;;;1.03;;
21507;SDS011;10915;54.352;9.074;2023-07-24T18:29:03;1.90;;;1.07;;
21507;SDS011;10915;54.352;9.074;2023-07-24T18:31:29;4.73;;;1.33;;
21507;SDS011;10915;54.352;9.074;2023-07-24T18:33:55;3.80;;;1.33;;
21507;SDS011;10915;54.352;9.074;2023-07-24T18:36:21;2.87;;;1.17;;
21507;SDS011;10915;54.352;9.074;2023-07-24T18:38:47;3.37;;;1.43;;
21507;SDS011;10915;54.352;9.074;2023-07-24T18:41:13;3.03;;;1.20;;
21507;SDS011;10915;54.352;9.074;2023-07-24T18:43:38;7.13;;;1.40;;
21507;SDS011;10915;54.352;9.074;2023-07-24T18:46:04;4.77;;;1.63;;
21507;SDS011;10915;54.352;9.074;2023-07-24T18:48:30;5.10;;;1.63;;
21507;SDS011;10915;54.352;9.074;2023-07-24T18:50:55;4.33;;;1.10;;
21507;SDS011;10915;54.352;9.074;2023-07-24T18:53:21;5.60;;;1.57;;
21507;SDS011;10915;54.352;9.074;2023-07-24T18:55:47;4.13;;;1.73;;